METAR Data
IDs: Format: Raw Decoded Include TAF

Data at: 0201 UTC 24 Sep 2018

KTAN 240157Z AUTO 00000KT 1 3/4SM BR CLR 09/08 A3029 RMK AO2 T00940083
KTAN 240152Z AUTO 00000KT 6SM BR CLR 10/08 A3029 RMK AO2 SLP257 T01000083
KTAN 240052Z AUTO 00000KT 5SM BR CLR 10/09 A3028 RMK AO2 SLP253 T01000094
KTAN 232352Z AUTO 00000KT 9SM CLR 11/10 A3026 RMK AO2 SLP248 T01110100 10178 20111 53012
KTAN 232252Z AUTO 00000KT 9SM CLR 13/12 A3025 RMK AO2 SLP242 T01280117
KTAN 232152Z AUTO 00000KT 10SM CLR 15/13 A3024 RMK AO2 SLP239 T01500128
KTAN 232052Z AUTO 00000KT 10SM CLR 17/11 A3023 RMK AO2 SLP236 T01720111 55003
KTAN 231952Z AUTO 00000KT 10SM CLR 18/09 A3023 RMK AO2 SLP235 T01780089
KTAN 231852Z AUTO VRB04KT 10SM CLR 18/09 A3023 RMK AO2 SLP235 T01780094
KTAN 231752Z AUTO VRB03KT 10SM CLR 17/08 A3024 RMK AO2 SLP240 T01720078 10178 20100 56012
KTAN 231652Z AUTO VRB03KT 10SM CLR 17/09 A3025 RMK AO2 SLP243 T01670089
KTAN 231552Z AUTO 00000KT 10SM CLR 16/09 A3025 RMK AO2 SLP244 T01610094
KTAN 231452Z AUTO 00000KT 10SM CLR 15/09 A3028 RMK AO2 SLP252 T01500089 50007
KTAN 231352Z AUTO 00000KT 10SM CLR 13/10 A3028 RMK AO2 SLP252 T01330100
KTAN 231252Z AUTO 00000KT 10SM CLR 11/09 A3027 RMK AO2 SLP250 T01110089
KTAN 231152Z AUTO 00000KT 10SM CLR 10/09 A3025 RMK AO2 SLP245 T01000089 10100 20072 53006
KTAN 231052Z AUTO 00000KT 10SM CLR 08/07 A3024 RMK AO2 SLP241 T00830072
KTAN 230952Z AUTO 00000KT 10SM CLR 07/07 A3024 RMK AO2 SLP241 T00720067
KTAN 230852Z AUTO 00000KT 7SM CLR 07/06 A3024 RMK AO2 SLP239 T00720061 53007
KTAN 230752Z AUTO 00000KT 8SM CLR 07/07 A3022 RMK AO2 SLP234 T00720067
KTAN 230736Z AUTO 00000KT 3SM BR CLR 08/07 A3022 RMK AO2 T00780067
KTAN 230732Z AUTO 00000KT 1 3/4SM BR CLR 08/07 A3022 RMK AO2 VIS 1V5 T00780067
KTAN 230652Z AUTO 00000KT 7SM CLR 08/08 A3021 RMK AO2 SLP229 T00830078
KTAN 230552Z AUTO 00000KT 10SM CLR 09/08 A3022 RMK AO2 SLP232 T00940083 10150 20094 58001
KTAN 230452Z AUTO 00000KT 10SM CLR 10/09 A3022 RMK AO2 SLP233 T01000089 402390100
KTAN 230352Z AUTO 00000KT 10SM CLR 11/10 A3022 RMK AO2 SLP234 T01110100
KTAN 230252Z AUTO 00000KT 10SM CLR 12/11 A3022 RMK AO2 SLP234 T01170106 51015
KTAN 230152Z AUTO 00000KT 10SM CLR 13/11 A3021 RMK AO2 SLP229 T01280111
KTAN 230052Z AUTO 00000KT 10SM CLR 13/12 A3020 RMK AO2 SLP226 T01330117
KTAN 222352Z AUTO 00000KT 10SM CLR 15/12 A3018 RMK AO2 SLP219 T01500117 10233 20150 53018
KTAN 222252Z AUTO 01003KT 10SM CLR 17/11 A3016 RMK AO2 SLP212 T01720106
KTAN 222152Z AUTO 00000KT 10SM CLR 19/12 A3014 RMK AO2 SLP204 T01890117
KTAN 222052Z AUTO 34005KT 10SM CLR 21/11 A3012 RMK AO2 SLP200 T02060106 53010
KTAN 221952Z AUTO 00000KT 10SM CLR 21/11 A3011 RMK AO2 SLP195 T02110106
KTAN 221852Z AUTO 36006KT 10SM CLR 22/09 A3010 RMK AO2 SLP193 T02220094
KTAN 221752Z AUTO 36006KT 10SM CLR 22/10 A3009 RMK AO2 SLP190 T02170100 10239 20211 53015
KTAN 221652Z AUTO 36007KT 10SM CLR 22/11 A3007 RMK AO2 SLP182 T02220111
KTAN 221552Z AUTO 35008G16KT 320V030 10SM CLR 22/11 A3007 RMK AO2 SLP181 T02170106
KTAN 221452Z AUTO 30008G16KT 10SM CLR 22/12 A3005 RMK AO2 SLP175 T02170117 51028